Time;durP1;ratioP1;P1;durP2;ratioP2;P2;SDS_P1;SDS_P2;PMS_P1;PMS_P2;Temp;Humidity;BMP_temperature;BMP_pressure;BME280_temperature;BME280_humidity;BME280_pressure;Samples;Min_cycle;Max_cycle;Signal;HPM_P1;HPM_P2
2022/08/18 00:01:03;;;;;;;;;18.00;18.00;;;;;21.74;69.56;100605.19;5096506;27;45495;-66
2022/08/18 00:03:29;;;;;;;;;14.00;14.00;;;;;21.81;69.66;100618.13;5079298;27;45359;-67
2022/08/18 00:05:55;;;;;;;;;18.67;16.33;;;;;21.74;69.60;100609.75;5100017;27;45500;-65
2022/08/18 00:08:20;;;;;;;;;21.33;19.67;;;;;21.77;69.34;100615.72;5099839;27;45335;-64
2022/08/18 00:10:46;;;;;;;;;22.00;20.00;;;;;21.74;69.58;100613.31;5099962;27;45918;-67
2022/08/18 00:13:11;;;;;;;;;18.33;16.00;;;;;21.72;69.67;100614.47;5081459;27;45688;-69
2022/08/18 00:15:37;;;;;;;;;18.67;18.67;;;;;21.72;69.80;100626.16;5100063;27;45348;-66
2022/08/18 00:18:02;;;;;;;;;21.33;17.67;;;;;21.62;70.08;100608.34;5100204;27;45666;-66
2022/08/18 00:20:28;;;;;;;;;21.33;18.00;;;;;21.60;70.57;100605.75;5099975;27;45275;-64
2022/08/18 00:22:55;;;;;;;;;22.67;20.67;;;;;21.67;70.29;100619.53;5099398;27;45446;-64
2022/08/18 00:25:21;;;;;;;;;23.00;20.00;;;;;21.68;70.62;100621.22;5099797;27;45361;-66
2022/08/18 00:27:47;;;;;;;;;16.33;15.00;;;;;21.70;71.00;100622.75;5099895;27;45554;-63
2022/08/18 00:30:17;;;;;;;;;20.00;20.00;;;;;21.69;70.39;100606.69;5099251;27;46473;-62
2022/08/18 00:32:47;;;;;;;;;22.33;21.00;;;;;21.64;70.43;100620.69;5099204;27;45325;-64
2022/08/18 00:35:25;;;;;;;;;22.00;19.00;;;;;21.64;70.84;100615.28;5099647;27;45428;-65
2022/08/18 00:37:52;;;;;;;;;19.67;18.00;;;;;21.62;70.61;100606.47;5099381;27;45193;-67
2022/08/18 00:40:21;;;;;;;;;22.00;19.00;;;;;21.66;70.63;100612.41;5099328;27;45329;-64
2022/08/18 00:42:53;;;;;;;;;23.67;20.00;;;;;21.60;70.67;100615.72;5099268;27;45451;-66
2022/08/18 00:45:26;;;;;;;;;21.00;17.67;;;;;21.59;70.78;100617.59;5099451;27;45387;-67
2022/08/18 00:47:52;;;;;;;;;19.33;19.00;;;;;21.56;71.46;100609.78;5099297;27;45423;-69
2022/08/18 00:50:47;;;;;;;;;18.67;17.33;;;;;21.62;71.11;100622.72;5099051;27;45758;-65
2022/08/18 00:53:26;;;;;;;;;20.67;18.33;;;;;21.53;70.92;100604.69;5077385;27;45282;-64
2022/08/18 00:55:53;;;;;;;;;18.33;18.33;;;;;21.57;70.90;100618.75;5099731;27;45407;-65
2022/08/18 00:58:34;;;;;;;;;18.67;18.67;;;;;21.59;71.02;100622.16;5098093;27;45310;-68
2022/08/18 01:01:04;;;;;;;;;20.67;20.67;;;;;21.60;70.96;100626.56;5099464;27;45229;-67
2022/08/18 01:03:32;;;;;;;;;20.67;17.67;;;;;21.58;70.43;100626.72;5099262;27;45314;-68
2022/08/18 01:06:04;;;;;;;;;19.67;17.67;;;;;21.44;70.61;100606.47;5099258;27;45282;-68
2022/08/18 01:08:30;;;;;;;;;23.00;18.67;;;;;21.59;70.64;100623.00;5099526;27;45420;-65
2022/08/18 01:11:00;;;;;;;;;19.67;18.00;;;;;21.60;70.74;100627.41;5098457;27;45532;-66
2022/08/18 01:13:28;;;;;;;;;19.67;19.00;;;;;21.61;70.00;100622.84;5098558;27;45340;-69
2022/08/18 01:15:54;;;;;;;;;16.00;15.00;;;;;21.57;70.16;100613.34;5098342;27;45454;-67
2022/08/18 01:23:55;;;;;;;;;22.67;19.33;;;;;21.59;70.30;100623.00;5097568;27;45290;-66
2022/08/18 01:26:21;;;;;;;;;19.00;16.33;;;;;21.59;70.03;100628.41;5098878;27;45953;-68
2022/08/18 01:28:48;;;;;;;;;23.67;22.33;;;;;21.58;70.02;100631.28;5091264;27;45428;-68
2022/08/18 01:31:29;;;;;;;;;21.33;18.33;;;;;21.49;69.81;100633.09;5077826;27;45545;-68
2022/08/18 01:33:56;;;;;;;;;19.33;17.33;;;;;21.45;70.09;100632.53;5077891;27;45518;-65
2022/08/18 01:36:22;;;;;;;;;21.00;19.67;;;;;21.46;70.63;100636.09;5078047;27;45484;-67
2022/08/18 01:38:50;;;;;;;;;20.00;19.00;;;;;21.47;70.43;100635.06;5078200;27;45576;-67
2022/08/18 01:41:21;;;;;;;;;19.00;18.00;;;;;21.46;70.22;100633.38;5078012;28;45492;-69
2022/08/18 01:43:47;;;;;;;;;21.33;19.67;;;;;21.39;70.13;100626.91;5077976;27;45385;-69
2022/08/18 01:46:13;;;;;;;;;23.00;18.00;;;;;21.35;70.23;100625.50;5076729;28;45409;-67
2022/08/18 01:48:38;;;;;;;;;17.33;16.67;;;;;21.38;70.51;100630.63;5078120;27;45711;-68
2022/08/18 01:51:08;;;;;;;;;19.67;18.33;;;;;21.37;70.34;100629.75;5077957;28;46036;-65
2022/08/18 01:53:35;;;;;;;;;21.00;19.00;;;;;21.38;70.34;100627.91;5078128;27;45345;-68
2022/08/18 01:56:04;;;;;;;;;20.67;19.67;;;;;21.35;70.64;100628.19;5076398;28;45259;-67
2022/08/18 01:58:33;;;;;;;;;15.00;15.00;;;;;21.31;70.81;100634.94;5077932;27;45450;-68
2022/08/18 02:01:03;;;;;;;;;16.00;15.00;;;;;21.27;70.97;100634.38;5077309;27;45327;-67
2022/08/18 02:03:34;;;;;;;;;15.00;14.67;;;;;21.18;71.06;100636.13;5077712;27;45444;-66
2022/08/18 02:06:02;;;;;;;;;17.33;17.00;;;;;21.21;70.85;100652.03;5077629;27;45406;-67
2022/08/18 02:08:28;;;;;;;;;20.00;14.33;;;;;21.12;70.58;100658.38;5077924;27;45631;-66
2022/08/18 02:10:53;;;;;;;;;17.33;16.33;;;;;21.01;70.47;100655.03;5077482;27;45488;-70
2022/08/18 02:13:19;;;;;;;;;12.00;12.00;;;;;20.94;70.41;100652.06;5077521;27;45301;-67
2022/08/18 02:15:45;;;;;;;;;14.67;14.00;;;;;20.89;70.87;100648.97;5077619;27;45866;-67
2022/08/18 02:18:19;;;;;;;;;15.33;14.00;;;;;20.77;70.44;100642.06;5077721;28;45415;-68
2022/08/18 02:20:44;;;;;;;;;15.33;13.67;;;;;20.80;70.06;100655.28;5077098;27;47681;-68
2022/08/18 02:23:11;;;;;;;;;14.00;12.33;;;;;20.69;70.45;100663.59;5076182;28;45297;-69
2022/08/18 02:25:36;;;;;;;;;15.67;14.33;;;;;20.65;70.93;100663.03;5077171;27;45188;-67
2022/08/18 02:28:03;;;;;;;;;14.33;13.00;;;;;20.60;70.85;100666.19;5078148;27;45318;-68
2022/08/18 02:30:28;;;;;;;;;12.00;12.00;;;;;20.55;71.34;100665.78;5097659;27;46543;-67
2022/08/18 02:32:55;;;;;;;;;16.00;16.00;;;;;20.45;71.28;100662.28;5079309;27;45347;-63
2022/08/18 02:35:20;;;;;;;;;14.00;12.67;;;;;20.38;72.15;100663.81;5097921;27;45290;-65
2022/08/18 02:37:46;;;;;;;;;15.00;13.67;;;;;20.45;72.01;100674.94;5100130;27;45231;-64
2022/08/18 02:40:13;;;;;;;;;17.00;17.00;;;;;20.47;72.19;100667.53;5099143;27;47050;-67
2022/08/18 02:42:38;;;;;;;;;15.00;15.00;;;;;20.48;72.04;100664.69;5096800;27;45415;-67
2022/08/18 02:45:05;;;;;;;;;19.00;18.00;;;;;20.46;72.17;100661.28;5097597;27;45445;-66
2022/08/18 02:47:30;;;;;;;;;20.67;17.33;;;;;20.44;72.09;100657.84;5097724;27;45463;-67
2022/08/18 02:49:56;;;;;;;;;18.00;18.00;;;;;20.29;72.27;100648.50;5095219;27;48120;-66
2022/08/18 02:52:27;;;;;;;;;17.33;16.00;;;;;20.32;72.93;100659.03;5095976;27;45374;-68
2022/08/18 02:54:53;;;;;;;;;17.33;16.67;;;;;20.21;72.65;100629.50;5094445;27;45498;-67
2022/08/18 02:57:21;;;;;;;;;14.00;14.00;;;;;20.34;72.72;100643.53;5094329;27;45469;-68
2022/08/18 02:59:46;;;;;;;;;17.00;17.00;;;;;20.35;72.89;100647.06;5095935;27;46359;-68
2022/08/18 03:02:12;;;;;;;;;18.00;17.00;;;;;20.35;72.65;100652.47;5095604;27;45261;-66
2022/08/18 03:04:38;;;;;;;;;18.00;17.00;;;;;20.34;72.91;100640.81;5095950;27;45369;-66
2022/08/18 03:07:06;;;;;;;;;17.67;15.00;;;;;20.33;72.91;100644.53;5095645;27;45687;-68
2022/08/18 03:09:33;;;;;;;;;19.00;19.00;;;;;20.36;72.46;100643.38;5095371;27;46390;-66
2022/08/18 03:11:58;;;;;;;;;16.33;15.33;;;;;20.38;72.36;100646.78;5095318;27;45293;-67
2022/08/18 03:14:24;;;;;;;;;20.33;17.33;;;;;20.35;72.92;100642.53;5095448;27;45389;-66
2022/08/18 03:16:50;;;;;;;;;17.67;16.00;;;;;20.35;72.69;100637.13;5095845;27;45350;-66
2022/08/18 03:19:16;;;;;;;;;18.00;16.67;;;;;20.35;72.23;100634.41;5095419;27;46469;-68
2022/08/18 03:21:44;;;;;;;;;17.33;16.00;;;;;20.35;72.36;100625.47;5095774;27;45246;-67
2022/08/18 03:24:11;;;;;;;;;18.00;16.33;;;;;20.30;72.32;100617.78;5094725;27;45284;-67
2022/08/18 03:26:41;;;;;;;;;17.67;16.33;;;;;20.31;72.33;100633.00;5095877;27;45324;-67
2022/08/18 03:29:07;;;;;;;;;18.67;18.33;;;;;20.29;72.42;100637.69;5085197;27;45315;-67
2022/08/18 03:31:37;;;;;;;;;18.00;16.33;;;;;20.21;72.91;100634.91;5073563;28;45405;-68
2022/08/18 03:34:04;;;;;;;;;17.67;16.00;;;;;20.19;72.73;100631.50;5075116;27;45423;-67
2022/08/18 03:36:32;;;;;;;;;18.33;16.00;;;;;20.14;72.90;100640.00;5073914;28;45331;-66
2022/08/18 03:39:00;;;;;;;;;18.33;16.67;;;;;20.21;73.10;100638.44;5073421;27;45997;-67
2022/08/18 03:41:27;;;;;;;;;19.00;19.00;;;;;20.24;72.90;100637.28;5074683;27;45356;-65
2022/08/18 03:43:52;;;;;;;;;17.33;17.33;;;;;20.23;72.87;100639.16;5074881;27;45460;-65
2022/08/18 03:46:20;;;;;;;;;15.67;15.67;;;;;20.23;72.61;100624.78;5075127;28;45471;-67
2022/08/18 03:48:48;;;;;;;;;20.67;19.33;;;;;20.19;72.69;100635.03;5074595;27;45577;-67
2022/08/18 03:51:17;;;;;;;;;20.00;18.00;;;;;20.17;73.01;100633.47;5035635;28;1143629;-66
2022/08/18 03:53:44;;;;;;;;;23.33;17.00;;;;;20.15;73.28;100625.50;5076932;27;45374;-69
2022/08/18 03:56:15;;;;;;;;;21.67;18.00;;;;;20.17;73.30;100623.50;5076834;27;45600;-70
2022/08/18 03:58:52;;;;;;;;;16.00;15.00;;;;;20.21;73.31;100634.91;5076414;27;45300;-66
2022/08/18 04:01:21;;;;;;;;;16.33;16.33;;;;;20.21;73.15;100629.50;5074825;28;45408;-67
2022/08/18 04:03:52;;;;;;;;;21.33;19.00;;;;;20.22;73.14;100633.91;5076088;27;45326;-65
2022/08/18 04:06:21;;;;;;;;;19.67;17.67;;;;;20.20;73.18;100630.50;5076206;27;45438;-67
2022/08/18 04:08:50;;;;;;;;;22.33;22.00;;;;;20.13;73.11;100618.56;5074525;28;45495;-65
2022/08/18 04:11:16;;;;;;;;;19.33;18.67;;;;;20.12;73.17;100624.97;5075986;27;45417;-65
2022/08/18 04:13:41;;;;;;;;;19.67;18.00;;;;;20.13;73.61;100626.66;5092163;27;45416;-65
2022/08/18 04:16:08;;;;;;;;;18.00;15.00;;;;;20.14;73.83;100622.97;5075937;27;45579;-67
2022/08/18 04:18:33;;;;;;;;;21.67;21.67;;;;;20.14;73.90;100628.38;5075740;27;45439;-65
2022/08/18 04:21:12;;;;;;;;;20.00;16.00;;;;;20.07;73.40;100616.47;5076837;27;45345;-66
2022/08/18 04:23:39;;;;;;;;;22.67;20.67;;;;;20.00;73.82;100617.03;5075642;27;45371;-67
2022/08/18 04:26:06;;;;;;;;;19.33;19.33;;;;;20.03;73.92;100622.13;5075786;27;45315;-68
2022/08/18 04:28:32;;;;;;;;;23.00;22.67;;;;;20.01;74.06;100624.13;5080517;27;45487;-67
2022/08/18 04:30:58;;;;;;;;;21.33;21.33;;;;;19.97;74.23;100611.94;5095699;27;45385;-68
2022/08/18 04:33:25;;;;;;;;;19.33;19.33;;;;;19.99;74.16;100615.34;5096003;27;45377;-67
2022/08/18 04:35:51;;;;;;;;;21.67;18.67;;;;;20.02;74.16;100624.97;5096355;27;45295;-67
2022/08/18 04:38:17;;;;;;;;;18.33;18.33;;;;;20.01;74.19;100626.84;5095685;27;45716;-67
2022/08/18 04:40:42;;;;;;;;;22.67;20.67;;;;;20.06;74.31;100634.50;5096106;27;45341;-67
2022/08/18 04:43:14;;;;;;;;;22.00;19.33;;;;;20.08;74.63;100634.38;5095613;27;45229;-69
2022/08/18 04:45:43;;;;;;;;;20.00;19.33;;;;;20.10;74.24;100637.75;5077231;27;45438;-68
2022/08/18 04:48:09;;;;;;;;;22.67;22.67;;;;;20.09;74.10;100638.75;5095623;27;46264;-68
2022/08/18 04:50:36;;;;;;;;;26.00;21.00;;;;;20.10;74.26;100643.16;5098468;27;45275;-68
2022/08/18 04:55:53;;;;;;;;;19.67;18.00;;;;;20.04;74.44;100637.34;5100025;27;45258;-68
2022/08/18 04:58:23;;;;;;;;;20.00;17.50;;;;;20.03;74.65;100643.72;5099068;27;46159;-67
2022/08/18 05:00:59;;;;;;;;;22.00;22.00;;;;;20.06;74.26;100649.88;5098962;27;45393;-67
2022/08/18 05:03:25;;;;;;;;;24.00;22.33;;;;;20.06;74.22;100652.56;5099099;27;45382;-68
2022/08/18 05:05:57;;;;;;;;;28.00;23.00;;;;;20.08;74.44;100655.97;5098066;27;45515;-67
2022/08/18 05:08:23;;;;;;;;;28.00;25.67;;;;;20.09;74.29;100663.06;5099094;27;45923;-68
2022/08/18 05:10:53;;;;;;;;;25.33;25.33;;;;;20.02;74.58;100652.84;5098943;27;45412;-66
2022/08/18 05:13:19;;;;;;;;;24.00;22.33;;;;;19.96;74.79;100664.22;5099290;27;45258;-66
2022/08/18 05:15:44;;;;;;;;;21.00;21.00;;;;;19.98;74.77;100673.03;5099619;27;45238;-69
2022/08/18 05:18:10;;;;;;;;;35.00;27.00;;;;;19.96;75.03;100676.88;5098783;27;47203;-68
2022/08/18 05:20:39;;;;;;;;;27.67;25.33;;;;;19.94;75.27;100677.00;5098759;27;45428;-68
2022/08/18 05:23:04;;;;;;;;;25.33;25.33;;;;;19.91;75.48;100671.88;5097988;27;45453;-68
2022/08/18 05:25:30;;;;;;;;;26.00;22.00;;;;;19.91;75.08;100669.19;5099075;27;45325;-68
2022/08/18 05:27:55;;;;;;;;;23.00;22.00;;;;;20.01;74.69;100683.53;5098684;27;46127;-68
2022/08/18 05:30:21;;;;;;;;;18.33;16.00;;;;;19.91;74.38;100671.03;5078217;28;45458;-67
2022/08/18 05:32:46;;;;;;;;;19.33;19.33;;;;;19.94;73.52;100686.97;5078558;28;45393;-68
2022/08/18 05:35:21;;;;;;;;;17.33;16.33;;;;;19.90;73.66;100682.81;5078303;28;45327;-68
2022/08/18 05:38:01;;;;;;;;;14.67;14.33;;;;;19.93;73.09;100686.13;5078041;28;45444;-68
2022/08/18 05:40:28;;;;;;;;;13.67;13.33;;;;;19.95;72.61;100692.22;5077833;27;45357;-66
2022/08/18 05:42:57;;;;;;;;;14.67;12.00;;;;;19.91;72.86;100692.63;5078017;27;45443;-66
2022/08/18 05:45:23;;;;;;;;;17.00;16.67;;;;;19.86;71.87;100684.13;5078274;27;45396;-68
2022/08/18 05:47:48;;;;;;;;;15.33;15.33;;;;;19.89;72.32;100692.78;5093645;27;46299;-66
2022/08/18 05:50:18;;;;;;;;;16.33;14.00;;;;;19.84;72.27;100678.88;5076169;27;45449;-68
2022/08/18 05:53:14;;;;;;;;;14.00;12.00;;;;;19.91;72.49;100701.56;5077911;27;45260;-68
2022/08/18 05:58:48;;;;;;;;;15.33;15.33;;;;;19.97;71.11;100714.50;5077561;28;45915;-67
2022/08/18 06:01:35;;;;;;;;;16.33;15.00;;;;;19.82;71.04;100715.09;5076587;28;45366;-68
2022/08/18 06:04:07;;;;;;;;;14.33;13.33;;;;;19.82;72.00;100707.84;5093561;27;45756;-68
2022/08/18 06:06:36;;;;;;;;;14.33;14.33;;;;;19.82;71.67;100712.41;5077987;27;45501;-65
2022/08/18 06:09:10;;;;;;;;;22.67;20.67;;;;;19.86;71.83;100706.56;5095829;27;46143;-65
2022/08/18 06:11:35;;;;;;;;;16.00;16.00;;;;;19.83;71.84;100701.47;5098144;27;45398;-67
2022/08/18 06:14:01;;;;;;;;;18.33;18.00;;;;;19.83;71.68;100704.16;5098288;27;45322;-67
2022/08/18 06:16:48;;;;;;;;;23.00;19.67;;;;;19.86;71.72;100709.25;5098328;27;45615;-65
2022/08/18 06:19:29;;;;;;;;;21.33;18.33;;;;;19.82;71.28;100702.44;5081233;27;45576;-62
2022/08/18 06:22:16;;;;;;;;;18.33;17.33;;;;;19.71;71.71;100695.34;5082858;27;45272;-63
2022/08/18 06:25:00;;;;;;;;;26.33;25.00;;;;;19.75;72.40;100706.69;5096647;27;45318;-62
2022/08/18 06:27:54;;;;;;;;;23.33;21.67;;;;;19.78;72.56;100713.66;5090447;27;45369;-64
2022/08/18 06:30:50;;;;;;;;;24.33;22.33;;;;;19.81;72.73;100714.25;5076581;27;48143;-62
2022/08/18 06:33:34;;;;;;;;;29.00;24.00;;;;;19.86;72.82;100720.06;5073374;28;45382;-62
2022/08/18 06:36:17;;;;;;;;;29.33;25.33;;;;;19.92;72.58;100718.63;5083310;27;45306;-63
2022/08/18 06:38:51;;;;;;;;;21.67;20.67;;;;;19.96;72.76;100711.97;5097926;27;45763;-62
2022/08/18 06:41:31;;;;;;;;;25.00;23.33;;;;;19.92;72.71;100706.00;5097279;27;46110;-62
2022/08/18 06:44:09;;;;;;;;;34.67;32.00;;;;;19.94;73.10;100709.41;5097063;27;45362;-62
2022/08/18 06:46:44;;;;;;;;;30.67;30.67;;;;;19.99;73.09;100717.91;5097599;27;45252;-63
2022/08/18 06:49:23;;;;;;;;;34.00;28.67;;;;;19.94;73.54;100716.66;5096325;27;45555;-64
2022/08/18 06:51:49;;;;;;;;;36.67;33.67;;;;;20.07;73.54;100724.47;5097829;27;46305;-64
2022/08/18 06:54:20;;;;;;;;;33.67;32.00;;;;;20.10;73.41;100730.41;5079446;27;45422;-66
2022/08/18 06:56:49;;;;;;;;;35.33;33.00;;;;;20.10;73.82;100725.00;5076594;28;45409;-65
2022/08/18 06:59:25;;;;;;;;;43.33;34.33;;;;;20.17;73.09;100736.94;5077003;28;45332;-63
2022/08/18 07:02:12;;;;;;;;;41.00;36.00;;;;;20.24;73.58;100742.63;5075441;28;47300;-63
2022/08/18 07:05:00;;;;;;;;;45.67;36.33;;;;;20.29;73.89;100738.47;5076740;28;45428;-64
2022/08/18 07:07:30;;;;;;;;;37.33;34.33;;;;;20.36;73.82;100736.06;5076417;28;45428;-62
2022/08/18 07:09:56;;;;;;;;;48.00;37.67;;;;;20.39;73.18;100727.66;5076854;28;45387;-65
2022/08/18 07:12:26;;;;;;;;;44.33;35.00;;;;;20.41;73.48;100725.66;5076541;28;45283;-66
2022/08/18 07:14:58;;;;;;;;;40.67;35.33;;;;;20.45;73.12;100729.81;5076222;28;45433;-65
2022/08/18 07:17:37;;;;;;;;;41.67;34.67;;;;;20.50;72.96;100723.97;5058534;28;45482;-64
2022/08/18 07:20:17;;;;;;;;;43.00;35.33;;;;;20.52;73.16;100736.31;5076465;28;45374;-64
2022/08/18 07:22:57;;;;;;;;;45.33;35.67;;;;;20.54;72.65;100731.63;5076376;28;45539;-65
2022/08/18 07:25:30;;;;;;;;;43.33;34.67;;;;;20.61;72.72;100740.84;5077299;28;45271;-65
2022/08/18 07:28:00;;;;;;;;;41.67;37.00;;;;;20.63;72.54;100726.34;5089928;27;45361;-65
2022/08/18 07:30:30;;;;;;;;;41.33;37.33;;;;;20.72;72.43;100736.28;5096879;27;45631;-63
2022/08/18 07:33:04;;;;;;;;;47.00;37.33;;;;;20.75;72.21;100738.69;5077908;27;48123;-63
2022/08/18 07:35:39;;;;;;;;;45.00;36.67;;;;;20.76;72.10;100734.97;5096691;27;45494;-62
2022/08/18 07:38:37;;;;;;;;;44.33;35.67;;;;;20.81;72.38;100743.47;5096833;27;45382;-64
2022/08/18 07:41:29;;;;;;;;;51.00;43.33;;;;;20.90;72.16;100732.63;5078399;27;45634;-66
2022/08/18 07:44:11;;;;;;;;;53.00;39.33;;;;;21.00;71.74;100743.41;5096482;27;45462;-64
2022/08/18 07:46:45;;;;;;;;;43.00;38.00;;;;;21.06;71.89;100748.22;5096753;27;45444;-65
2022/08/18 07:49:19;;;;;;;;;48.00;37.67;;;;;21.17;71.85;100748.00;5097058;27;45266;-65
2022/08/18 07:51:49;;;;;;;;;48.33;38.33;;;;;21.28;71.46;100733.47;5097116;27;45174;-64
2022/08/18 07:54:27;;;;;;;;;40.00;35.00;;;;;21.40;71.08;100742.22;5096236;27;45374;-64
2022/08/18 07:57:14;;;;;;;;;53.67;41.00;;;;;21.48;70.91;100753.13;5095491;27;45235;-63
2022/08/18 07:59:50;;;;;;;;;48.67;41.00;;;;;21.59;70.70;100755.63;5077547;27;45222;-65
2022/08/18 08:02:58;;;;;;;;;51.00;40.33;;;;;21.61;69.49;100748.19;5096458;27;45564;-64
2022/08/18 08:06:01;;;;;;;;;53.33;42.00;;;;;21.68;70.87;100741.16;4993561;28;46172;-62
2022/08/18 08:08:41;;;;;;;;;49.00;41.00;;;;;21.82;70.67;100739.78;5049913;27;45397;-63
2022/08/18 08:11:32;;;;;;;;;51.67;41.00;;;;;21.91;69.82;100738.00;5096133;27;45314;-63
2022/08/18 08:14:24;;;;;;;;;50.00;42.00;;;;;22.01;69.86;100736.06;5095834;27;45536;-64
2022/08/18 08:17:01;;;;;;;;;45.67;37.67;;;;;22.03;68.55;100720.50;5094525;27;45560;-64
2022/08/18 08:19:42;;;;;;;;;52.67;41.67;;;;;22.04;68.34;100731.19;5096060;27;45386;-63
2022/08/18 08:22:18;;;;;;;;;48.33;40.33;;;;;22.03;67.95;100718.66;5096048;27;45414;-65
2022/08/18 08:25:02;;;;;;;;;48.67;41.00;;;;;22.02;68.46;100721.53;5096516;27;45535;-65
2022/08/18 08:27:44;;;;;;;;;50.00;42.67;;;;;22.10;68.32;100716.19;5099413;27;45957;-66
2022/08/18 08:30:14;;;;;;;;;48.33;38.00;;;;;22.16;68.71;100706.59;5097883;27;45438;-63
2022/08/18 08:32:43;;;;;;;;;46.33;38.67;;;;;22.31;67.48;100711.28;5097842;27;45213;-64
2022/08/18 08:35:26;;;;;;;;;46.67;37.00;;;;;22.32;66.70;100698.56;5100166;27;45332;-64
2022/08/18 08:37:59;;;;;;;;;39.33;35.67;;;;;22.65;66.05;100707.75;5099307;27;46219;-63
2022/08/18 08:40:31;;;;;;;;;43.33;38.67;;;;;22.92;64.37;100702.16;5099666;27;45211;-62
2022/08/18 08:43:07;;;;;;;;;43.67;37.33;;;;;23.27;63.63;100699.38;5099553;27;45475;-62
2022/08/18 08:45:36;;;;;;;;;49.67;37.33;;;;;23.60;64.45;100703.06;5098086;27;45464;-64
2022/08/18 08:48:28;;;;;;;;;33.33;31.33;;;;;24.08;63.34;100708.50;5098721;27;45341;-63
2022/08/18 08:51:10;;;;;;;;;48.33;39.67;;;;;24.34;59.70;100699.31;5080268;27;45454;-63
2022/08/18 08:53:46;;;;;;;;;37.00;35.00;;;;;24.72;61.16;100719.47;5099300;27;45440;-64
2022/08/18 08:56:16;;;;;;;;;43.00;36.00;;;;;25.05;59.66;100713.94;5099056;27;45515;-63
2022/08/18 08:58:59;;;;;;;;;41.00;35.00;;;;;25.35;56.80;100724.00;5098708;27;47190;-63
2022/08/18 09:01:36;;;;;;;;;43.67;33.33;;;;;25.67;56.67;100725.69;5098803;27;45336;-65
2022/08/18 09:04:27;;;;;;;;;43.67;35.00;;;;;26.06;57.80;100725.59;5099091;27;45235;-65
2022/08/18 09:07:13;;;;;;;;;34.67;31.33;;;;;26.43;53.45;100716.59;5099312;27;45510;-66
2022/08/18 09:09:50;;;;;;;;;36.25;28.00;;;;;26.80;54.27;100731.16;5098500;27;46579;-64
2022/08/18 09:12:18;;;;;;;;;28.00;28.00;;;;;27.20;54.98;100723.53;5098436;27;45337;-64
2022/08/18 09:14:59;;;;;;;;;35.75;30.75;;;;;27.59;54.01;100729.47;5098888;27;45353;-65
2022/08/18 09:17:43;;;;;;;;;30.50;28.75;;;;;27.90;49.96;100731.09;5098939;27;45173;-66
2022/08/18 09:20:20;;;;;;;;;34.25;28.25;;;;;27.98;47.62;100735.56;5080188;27;47193;-65
2022/08/18 09:22:51;;;;;;;;;34.25;31.00;;;;;28.00;47.21;100734.34;5098501;27;45247;-67
2022/08/18 09:25:38;;;;;;;;;28.25;24.75;;;;;28.19;51.11;100739.13;5098983;27;45453;-66
2022/08/18 09:28:37;;;;;;;;;31.50;29.25;;;;;28.46;48.73;100731.16;5098929;27;45490;-67
2022/08/18 09:31:05;;;;;;;;;34.00;30.50;;;;;28.67;45.32;100746.69;5095197;27;45580;-64
2022/08/18 09:33:47;;;;;;;;;32.50;28.25;;;;;28.71;47.21;100726.94;5098910;27;45363;-65
2022/08/18 09:36:35;;;;;;;;;29.60;24.80;;;;;28.73;48.44;100738.50;5098484;27;45307;-65
2022/08/18 09:42:26;;;;;;;;;29.60;25.00;;;;;29.30;47.92;100722.84;5098192;27;45849;-66
2022/08/18 09:44:52;;;;;;;;;21.80;21.80;;;;;29.73;47.35;100728.88;5098316;27;45416;-67
2022/08/18 09:47:20;;;;;;;;;28.25;24.25;;;;;30.06;46.77;100726.22;5098460;27;45692;-66
2022/08/18 09:49:48;;;;;;;;;23.50;21.75;;;;;30.29;45.75;100723.03;5098502;27;45493;-65
2022/08/18 09:52:20;;;;;;;;;22.20;22.20;;;;;30.44;45.27;100729.16;5098173;27;45512;-65
2022/08/18 09:54:59;;;;;;;;;21.00;21.00;;;;;30.67;45.70;100722.41;5098057;27;45413;-66
2022/08/18 09:57:27;;;;;;;;;21.40;20.00;;;;;30.80;43.21;100722.38;5098010;27;45471;-65
2022/08/18 10:00:15;;;;;;;;;26.00;24.50;;;;;30.85;45.48;100721.72;5097985;27;45477;-66
2022/08/18 10:02:40;;;;;;;;;23.80;22.40;;;;;30.94;43.38;100724.03;5097709;27;45349;-66
2022/08/18 10:05:21;;;;;;;;;23.00;23.00;;;;;30.98;44.38;100722.50;5098054;27;45317;-66
2022/08/18 10:07:47;;;;;;;;;24.00;22.20;;;;;30.94;42.75;100718.53;5097820;27;45443;-67
2022/08/18 10:10:38;;;;;;;;;24.40;22.80;;;;;30.83;41.69;100722.78;5098253;27;45334;-66
2022/08/18 10:13:28;;;;;;;;;27.60;24.60;;;;;30.49;40.54;100721.16;5097805;27;46168;-64
2022/08/18 10:16:21;;;;;;;;;23.20;22.80;;;;;30.24;43.65;100709.13;5097803;27;45299;-64
2022/08/18 10:18:59;;;;;;;;;24.80;22.40;;;;;30.16;44.31;100706.59;5097976;27;45362;-65
2022/08/18 10:21:29;;;;;;;;;19.40;19.40;;;;;29.97;42.85;100696.44;5098171;27;45213;-66
2022/08/18 10:23:54;;;;;;;;;25.75;19.00;;;;;29.63;42.70;100699.13;5078603;27;45583;-65
2022/08/18 10:26:43;;;;;;;;;22.75;21.75;;;;;29.21;44.10;100692.03;5097638;27;45506;-65
2022/08/18 10:29:23;;;;;;;;;18.40;18.40;;;;;28.90;45.62;100699.88;5095238;27;45196;-63
2022/08/18 10:31:58;;;;;;;;;25.00;22.50;;;;;28.77;45.02;100692.41;5097784;27;45344;-66
2022/08/18 10:34:26;;;;;;;;;23.60;19.80;;;;;28.59;46.48;100684.75;5079020;27;47738;-65
2022/08/18 10:36:57;;;;;;;;;21.40;19.60;;;;;28.32;47.03;100683.72;5097241;27;45495;-64
2022/08/18 10:39:45;;;;;;;;;23.80;19.00;;;;;28.10;47.31;100684.78;5097277;27;45263;-63
2022/08/18 10:42:22;;;;;;;;;15.00;15.00;;;;;27.94;45.18;100674.97;5097753;27;45404;-63
2022/08/18 10:44:51;;;;;;;;;19.40;16.00;;;;;27.66;47.48;100644.88;5097202;27;45414;-65
2022/08/18 10:47:28;;;;;;;;;17.60;16.00;;;;;27.77;46.47;100679.88;5096551;27;45462;-65
2022/08/18 10:49:55;;;;;;;;;20.20;18.00;;;;;27.70;46.66;100673.50;5097371;27;45418;-64
2022/08/18 10:52:35;;;;;;;;;18.75;18.75;;;;;27.68;46.85;100675.59;5097527;27;45389;-66
2022/08/18 10:55:09;;;;;;;;;16.20;14.80;;;;;27.68;47.46;100674.75;5097063;27;46243;-63
2022/08/18 10:57:59;;;;;;;;;20.80;18.60;;;;;27.63;46.82;100676.16;5097638;27;45247;-64
2022/08/18 11:00:43;;;;;;;;;24.40;22.20;;;;;27.62;45.86;100670.88;5097137;27;45385;-64
2022/08/18 11:03:26;;;;;;;;;19.50;18.75;;;;;27.49;45.54;100671.59;5097209;27;45423;-65
2022/08/18 11:06:02;;;;;;;;;19.00;18.00;;;;;27.44;47.25;100681.38;5078484;27;47854;-65
2022/08/18 11:08:27;;;;;;;;;16.60;15.00;;;;;27.52;45.80;100682.13;5096949;27;45235;-65
2022/08/18 11:10:53;;;;;;;;;17.50;16.50;;;;;27.63;46.25;100676.16;5097241;27;45173;-64
2022/08/18 11:13:44;;;;;;;;;16.25;16.25;;;;;27.68;46.93;100674.75;5097697;27;45642;-63
2022/08/18 11:16:28;;;;;;;;;17.40;15.00;;;;;27.66;46.91;100672.19;5096948;27;46312;-64
2022/08/18 11:19:05;;;;;;;;;20.60;17.80;;;;;27.71;45.52;100680.66;5096935;27;45451;-66
2022/08/18 11:21:35;;;;;;;;;15.20;15.20;;;;;27.68;46.32;100666.53;5096237;27;45343;-64
2022/08/18 11:24:10;;;;;;;;;15.50;14.25;;;;;27.75;44.98;100671.03;5097057;27;45440;-66
2022/08/18 11:27:07;;;;;;;;;14.80;14.80;;;;;27.83;45.83;100670.03;5094498;27;45431;-64
2022/08/18 11:29:39;;;;;;;;;14.60;14.20;;;;;27.80;46.29;100662.25;5074287;28;45350;-66
2022/08/18 11:32:14;;;;;;;;;13.80;13.00;;;;;27.88;45.70;100678.50;5076793;28;45421;-64
2022/08/18 11:34:51;;;;;;;;;12.75;12.75;;;;;27.96;46.17;100677.50;5076642;28;45378;-64
2022/08/18 11:37:32;;;;;;;;;15.50;15.50;;;;;28.12;45.54;100677.22;5074658;28;45433;-64
2022/08/18 11:40:00;;;;;;;;;13.20;13.20;;;;;28.17;45.08;100675.59;5075778;28;45256;-66
2022/08/18 11:42:29;;;;;;;;;14.00;13.40;;;;;28.11;42.15;100676.38;5076385;27;45476;-64
2022/08/18 11:45:10;;;;;;;;;13.40;12.00;;;;;28.18;44.11;100671.81;5075245;28;45421;-63
2022/08/18 11:47:37;;;;;;;;;19.00;15.50;;;;;28.35;43.71;100666.06;5074072;28;45445;-66
2022/08/18 11:50:10;;;;;;;;;16.00;15.40;;;;;28.31;42.48;100670.25;5075818;27;45516;-65